sensor_id;sensor_type;location;lat;lon;timestamp;P1;durP1;ratioP1;P2;durP2;ratioP2
46290;SDS011;32023;44.444;26.006;2023-02-01T00:01:09;94.72;;;53.13;;
46290;SDS011;32023;44.444;26.006;2023-02-01T00:03:35;97.72;;;52.97;;
46290;SDS011;32023;44.444;26.006;2023-02-01T00:06:02;99.80;;;52.92;;
46290;SDS011;32023;44.444;26.006;2023-02-01T00:08:29;102.38;;;52.42;;
46290;SDS011;32023;44.444;26.006;2023-02-01T00:11:13;102.28;;;51.90;;
46290;SDS011;32023;44.444;26.006;2023-02-01T00:13:43;95.57;;;49.17;;
46290;SDS011;32023;44.444;26.006;2023-02-01T00:16:10;99.65;;;51.80;;
46290;SDS011;32023;44.444;26.006;2023-02-01T00:18:42;94.28;;;50.42;;
46290;SDS011;32023;44.444;26.006;2023-02-01T00:21:16;90.15;;;48.00;;
46290;SDS011;32023;44.444;26.006;2023-02-01T00:23:44;97.30;;;48.83;;
46290;SDS011;32023;44.444;26.006;2023-02-01T00:26:18;92.30;;;46.90;;
46290;SDS011;32023;44.444;26.006;2023-02-01T00:28:50;83.85;;;44.83;;
46290;SDS011;32023;44.444;26.006;2023-02-01T00:31:16;89.45;;;45.70;;
46290;SDS011;32023;44.444;26.006;2023-02-01T00:33:43;94.82;;;46.50;;
46290;SDS011;32023;44.444;26.006;2023-02-01T00:36:13;83.80;;;45.35;;
46290;SDS011;32023;44.444;26.006;2023-02-01T00:41:15;85.82;;;46.17;;
46290;SDS011;32023;44.444;26.006;2023-02-01T00:43:43;85.13;;;47.60;;
46290;SDS011;32023;44.444;26.006;2023-02-01T00:46:10;88.68;;;47.47;;
46290;SDS011;32023;44.444;26.006;2023-02-01T00:48:38;90.55;;;47.13;;
46290;SDS011;32023;44.444;26.006;2023-02-01T00:51:06;95.55;;;48.67;;
46290;SDS011;32023;44.444;26.006;2023-02-01T00:53:34;92.38;;;49.15;;
46290;SDS011;32023;44.444;26.006;2023-02-01T00:56:01;96.70;;;50.65;;
46290;SDS011;32023;44.444;26.006;2023-02-01T00:58:28;92.88;;;48.95;;
46290;SDS011;32023;44.444;26.006;2023-02-01T01:01:05;99.30;;;51.15;;
46290;SDS011;32023;44.444;26.006;2023-02-01T01:03:35;95.45;;;50.85;;
46290;SDS011;32023;44.444;26.006;2023-02-01T01:06:08;100.28;;;51.15;;
46290;SDS011;32023;44.444;26.006;2023-02-01T01:08:52;97.50;;;50.67;;
46290;SDS011;32023;44.444;26.006;2023-02-01T01:11:30;96.72;;;50.58;;
46290;SDS011;32023;44.444;26.006;2023-02-01T01:14:00;97.32;;;52.42;;
46290;SDS011;32023;44.444;26.006;2023-02-01T01:16:28;99.13;;;53.25;;
46290;SDS011;32023;44.444;26.006;2023-02-01T01:19:00;99.22;;;53.22;;
46290;SDS011;32023;44.444;26.006;2023-02-01T01:21:27;94.15;;;49.95;;
46290;SDS011;32023;44.444;26.006;2023-02-01T01:23:56;94.30;;;48.58;;
46290;SDS011;32023;44.444;26.006;2023-02-01T01:26:24;97.43;;;49.88;;
46290;SDS011;32023;44.444;26.006;2023-02-01T01:28:52;92.78;;;49.30;;
46290;SDS011;32023;44.444;26.006;2023-02-01T01:31:20;91.93;;;46.47;;
46290;SDS011;32023;44.444;26.006;2023-02-01T01:33:47;88.40;;;47.80;;
46290;SDS011;32023;44.444;26.006;2023-02-01T01:36:20;97.20;;;50.17;;
46290;SDS011;32023;44.444;26.006;2023-02-01T01:38:46;87.88;;;47.53;;
46290;SDS011;32023;44.444;26.006;2023-02-01T01:41:15;87.75;;;47.20;;
46290;SDS011;32023;44.444;26.006;2023-02-01T01:43:52;85.57;;;45.70;;
46290;SDS011;32023;44.444;26.006;2023-02-01T01:49:08;82.28;;;43.38;;
46290;SDS011;32023;44.444;26.006;2023-02-01T01:51:55;86.43;;;45.90;;
46290;SDS011;32023;44.444;26.006;2023-02-01T01:54:29;85.65;;;44.40;;
46290;SDS011;32023;44.444;26.006;2023-02-01T01:57:04;78.53;;;41.55;;
46290;SDS011;32023;44.444;26.006;2023-02-01T01:59:39;78.70;;;43.47;;
46290;SDS011;32023;44.444;26.006;2023-02-01T02:02:08;75.47;;;41.88;;
46290;SDS011;32023;44.444;26.006;2023-02-01T02:04:41;77.72;;;41.97;;
46290;SDS011;32023;44.444;26.006;2023-02-01T02:07:10;86.82;;;46.38;;
46290;SDS011;32023;44.444;26.006;2023-02-01T02:09:41;77.20;;;42.28;;
46290;SDS011;32023;44.444;26.006;2023-02-01T02:12:08;81.97;;;43.25;;
46290;SDS011;32023;44.444;26.006;2023-02-01T02:14:41;81.90;;;44.55;;
46290;SDS011;32023;44.444;26.006;2023-02-01T02:26:20;83.72;;;45.03;;
46290;SDS011;32023;44.444;26.006;2023-02-01T02:29:02;85.30;;;44.10;;
46290;SDS011;32023;44.444;26.006;2023-02-01T02:34:40;89.13;;;45.13;;
46290;SDS011;32023;44.444;26.006;2023-02-01T02:37:41;86.53;;;45.58;;
46290;SDS011;32023;44.444;26.006;2023-02-01T02:45:51;82.32;;;44.28;;
46290;SDS011;32023;44.444;26.006;2023-02-01T02:48:44;72.97;;;40.15;;
46290;SDS011;32023;44.444;26.006;2023-02-01T02:55:00;78.32;;;42.13;;
46290;SDS011;32023;44.444;26.006;2023-02-01T02:57:30;78.10;;;40.58;;
46290;SDS011;32023;44.444;26.006;2023-02-01T03:00:27;78.05;;;40.83;;
46290;SDS011;32023;44.444;26.006;2023-02-01T03:03:15;79.88;;;40.00;;
46290;SDS011;32023;44.444;26.006;2023-02-01T03:06:00;78.50;;;41.83;;
46290;SDS011;32023;44.444;26.006;2023-02-01T03:08:27;79.20;;;42.17;;
46290;SDS011;32023;44.444;26.006;2023-02-01T03:11:00;88.65;;;43.55;;
46290;SDS011;32023;44.444;26.006;2023-02-01T03:16:26;84.75;;;44.83;;
46290;SDS011;32023;44.444;26.006;2023-02-01T03:21:53;79.43;;;42.80;;
46290;SDS011;32023;44.444;26.006;2023-02-01T03:24:28;78.32;;;40.63;;
46290;SDS011;32023;44.444;26.006;2023-02-01T03:32:43;69.63;;;38.30;;
46290;SDS011;32023;44.444;26.006;2023-02-01T03:38:14;78.20;;;38.70;;
46290;SDS011;32023;44.444;26.006;2023-02-01T03:43:56;74.75;;;38.30;;
46290;SDS011;32023;44.444;26.006;2023-02-01T03:46:29;70.63;;;35.60;;
46290;SDS011;32023;44.444;26.006;2023-02-01T03:49:03;66.28;;;34.75;;
46290;SDS011;32023;44.444;26.006;2023-02-01T03:51:33;64.80;;;35.30;;
46290;SDS011;32023;44.444;26.006;2023-02-01T03:54:04;62.33;;;34.78;;
46290;SDS011;32023;44.444;26.006;2023-02-01T03:56:35;55.83;;;29.98;;
46290;SDS011;32023;44.444;26.006;2023-02-01T03:59:05;58.72;;;32.00;;
46290;SDS011;32023;44.444;26.006;2023-02-01T04:01:35;54.28;;;30.05;;
46290;SDS011;32023;44.444;26.006;2023-02-01T04:04:02;54.65;;;31.10;;
46290;SDS011;32023;44.444;26.006;2023-02-01T04:06:30;56.40;;;30.38;;
46290;SDS011;32023;44.444;26.006;2023-02-01T04:09:00;59.00;;;29.77;;
46290;SDS011;32023;44.444;26.006;2023-02-01T04:11:27;52.03;;;28.40;;
46290;SDS011;32023;44.444;26.006;2023-02-01T04:13:54;52.03;;;29.05;;
46290;SDS011;32023;44.444;26.006;2023-02-01T04:16:20;52.90;;;27.73;;
46290;SDS011;32023;44.444;26.006;2023-02-01T04:18:48;47.88;;;25.58;;
46290;SDS011;32023;44.444;26.006;2023-02-01T04:21:14;46.05;;;26.15;;
46290;SDS011;32023;44.444;26.006;2023-02-01T04:23:41;48.75;;;26.33;;
46290;SDS011;32023;44.444;26.006;2023-02-01T04:26:07;47.35;;;26.83;;
46290;SDS011;32023;44.444;26.006;2023-02-01T04:28:33;42.63;;;23.73;;
46290;SDS011;32023;44.444;26.006;2023-02-01T04:31:03;43.95;;;24.02;;
46290;SDS011;32023;44.444;26.006;2023-02-01T04:33:32;48.22;;;25.48;;
46290;SDS011;32023;44.444;26.006;2023-02-01T04:36:04;43.60;;;24.42;;
46290;SDS011;32023;44.444;26.006;2023-02-01T04:38:33;46.38;;;24.05;;
46290;SDS011;32023;44.444;26.006;2023-02-01T04:40:59;46.75;;;24.33;;
46290;SDS011;32023;44.444;26.006;2023-02-01T04:43:29;41.92;;;23.33;;
46290;SDS011;32023;44.444;26.006;2023-02-01T04:45:55;50.08;;;25.45;;
46290;SDS011;32023;44.444;26.006;2023-02-01T04:51:14;45.13;;;23.58;;
46290;SDS011;32023;44.444;26.006;2023-02-01T04:53:40;40.25;;;21.80;;
46290;SDS011;32023;44.444;26.006;2023-02-01T04:56:07;36.58;;;19.38;;
46290;SDS011;32023;44.444;26.006;2023-02-01T04:58:33;41.92;;;22.35;;
46290;SDS011;32023;44.444;26.006;2023-02-01T05:01:01;35.15;;;19.80;;
46290;SDS011;32023;44.444;26.006;2023-02-01T05:03:29;40.08;;;20.20;;
46290;SDS011;32023;44.444;26.006;2023-02-01T05:05:57;36.28;;;19.52;;
46290;SDS011;32023;44.444;26.006;2023-02-01T05:08:24;31.00;;;18.02;;
46290;SDS011;32023;44.444;26.006;2023-02-01T05:10:52;39.25;;;19.23;;
46290;SDS011;32023;44.444;26.006;2023-02-01T05:15:54;30.80;;;17.35;;
46290;SDS011;32023;44.444;26.006;2023-02-01T05:18:28;34.67;;;17.10;;
46290;SDS011;32023;44.444;26.006;2023-02-01T05:20:57;28.48;;;15.40;;
46290;SDS011;32023;44.444;26.006;2023-02-01T05:23:30;30.30;;;17.00;;
46290;SDS011;32023;44.444;26.006;2023-02-01T05:26:29;36.65;;;18.67;;
46290;SDS011;32023;44.444;26.006;2023-02-01T05:29:03;33.42;;;17.08;;
46290;SDS011;32023;44.444;26.006;2023-02-01T05:34:02;31.05;;;15.10;;
46290;SDS011;32023;44.444;26.006;2023-02-01T05:36:31;29.20;;;15.75;;
46290;SDS011;32023;44.444;26.006;2023-02-01T05:42:42;25.55;;;13.90;;
46290;SDS011;32023;44.444;26.006;2023-02-01T05:45:51;29.95;;;14.70;;
46290;SDS011;32023;44.444;26.006;2023-02-01T05:48:31;26.40;;;12.93;;
46290;SDS011;32023;44.444;26.006;2023-02-01T05:51:00;34.22;;;17.13;;
46290;SDS011;32023;44.444;26.006;2023-02-01T05:58:52;28.25;;;17.15;;
46290;SDS011;32023;44.444;26.006;2023-02-01T06:01:25;29.40;;;16.02;;
46290;SDS011;32023;44.444;26.006;2023-02-01T06:03:54;29.52;;;16.20;;
46290;SDS011;32023;44.444;26.006;2023-02-01T06:06:27;29.13;;;15.07;;
46290;SDS011;32023;44.444;26.006;2023-02-01T06:08:55;28.35;;;14.80;;
46290;SDS011;32023;44.444;26.006;2023-02-01T06:11:26;23.25;;;13.98;;
46290;SDS011;32023;44.444;26.006;2023-02-01T06:13:57;25.67;;;13.18;;
46290;SDS011;32023;44.444;26.006;2023-02-01T06:16:36;23.58;;;13.38;;
46290;SDS011;32023;44.444;26.006;2023-02-01T06:19:20;22.60;;;12.90;;
46290;SDS011;32023;44.444;26.006;2023-02-01T06:22:01;20.05;;;11.40;;
46290;SDS011;32023;44.444;26.006;2023-02-01T06:24:34;21.42;;;12.95;;
46290;SDS011;32023;44.444;26.006;2023-02-01T06:27:18;21.42;;;11.90;;
46290;SDS011;32023;44.444;26.006;2023-02-01T06:29:53;22.48;;;11.77;;
46290;SDS011;32023;44.444;26.006;2023-02-01T06:32:25;21.88;;;12.18;;
46290;SDS011;32023;44.444;26.006;2023-02-01T06:37:51;24.00;;;11.75;;
46290;SDS011;32023;44.444;26.006;2023-02-01T06:40:22;22.08;;;13.05;;
46290;SDS011;32023;44.444;26.006;2023-02-01T06:42:48;23.65;;;13.23;;
46290;SDS011;32023;44.444;26.006;2023-02-01T06:45:20;22.35;;;11.68;;
46290;SDS011;32023;44.444;26.006;2023-02-01T06:47:47;19.92;;;10.70;;
46290;SDS011;32023;44.444;26.006;2023-02-01T06:50:13;17.80;;;10.48;;
46290;SDS011;32023;44.444;26.006;2023-02-01T06:52:46;19.02;;;11.70;;
46290;SDS011;32023;44.444;26.006;2023-02-01T06:55:15;18.40;;;10.45;;
46290;SDS011;32023;44.444;26.006;2023-02-01T06:57:41;19.17;;;10.25;;
46290;SDS011;32023;44.444;26.006;2023-02-01T07:00:11;17.92;;;10.60;;
46290;SDS011;32023;44.444;26.006;2023-02-01T07:02:38;19.38;;;10.50;;
46290;SDS011;32023;44.444;26.006;2023-02-01T07:05:20;17.45;;;10.05;;
46290;SDS011;32023;44.444;26.006;2023-02-01T07:07:46;16.52;;;11.00;;
46290;SDS011;32023;44.444;26.006;2023-02-01T07:10:13;19.52;;;11.10;;
46290;SDS011;32023;44.444;26.006;2023-02-01T07:12:44;20.30;;;11.02;;
46290;SDS011;32023;44.444;26.006;2023-02-01T07:15:13;21.48;;;12.50;;
46290;SDS011;32023;44.444;26.006;2023-02-01T07:17:53;22.73;;;11.93;;
46290;SDS011;32023;44.444;26.006;2023-02-01T07:20:25;22.50;;;12.52;;
46290;SDS011;32023;44.444;26.006;2023-02-01T07:23:10;19.88;;;11.98;;
46290;SDS011;32023;44.444;26.006;2023-02-01T07:26:09;20.67;;;12.13;;
46290;SDS011;32023;44.444;26.006;2023-02-01T07:28:56;20.95;;;12.23;;
46290;SDS011;32023;44.444;26.006;2023-02-01T07:31:31;24.05;;;11.73;;
46290;SDS011;32023;44.444;26.006;2023-02-01T07:33:58;21.02;;;12.35;;
46290;SDS011;32023;44.444;26.006;2023-02-01T07:36:27;19.45;;;12.45;;
46290;SDS011;32023;44.444;26.006;2023-02-01T07:38:59;23.45;;;13.60;;
46290;SDS011;32023;44.444;26.006;2023-02-01T07:41:28;23.65;;;12.60;;
46290;SDS011;32023;44.444;26.006;2023-02-01T07:43:54;18.27;;;12.32;;
46290;SDS011;32023;44.444;26.006;2023-02-01T07:46:25;21.98;;;13.23;;
46290;SDS011;32023;44.444;26.006;2023-02-01T07:48:55;18.88;;;11.95;;
46290;SDS011;32023;44.444;26.006;2023-02-01T07:51:21;23.50;;;12.10;;
46290;SDS011;32023;44.444;26.006;2023-02-01T07:53:48;21.45;;;10.57;;
46290;SDS011;32023;44.444;26.006;2023-02-01T07:56:17;17.42;;;10.13;;
46290;SDS011;32023;44.444;26.006;2023-02-01T07:58:51;17.67;;;10.73;;
46290;SDS011;32023;44.444;26.006;2023-02-01T08:01:32;21.80;;;10.25;;
46290;SDS011;32023;44.444;26.006;2023-02-01T08:04:02;17.35;;;9.65;;
46290;SDS011;32023;44.444;26.006;2023-02-01T08:06:30;17.58;;;10.25;;
46290;SDS011;32023;44.444;26.006;2023-02-01T08:09:02;17.13;;;9.50;;
46290;SDS011;32023;44.444;26.006;2023-02-01T08:11:29;17.88;;;10.15;;
46290;SDS011;32023;44.444;26.006;2023-02-01T08:13:56;13.13;;;8.38;;
46290;SDS011;32023;44.444;26.006;2023-02-01T08:16:23;16.00;;;9.68;;
46290;SDS011;32023;44.444;26.006;2023-02-01T08:18:50;18.02;;;9.90;;
46290;SDS011;32023;44.444;26.006;2023-02-01T08:21:33;14.57;;;8.07;;
46290;SDS011;32023;44.444;26.006;2023-02-01T08:24:07;15.45;;;7.63;;
46290;SDS011;32023;44.444;26.006;2023-02-01T08:26:36;12.25;;;7.75;;
46290;SDS011;32023;44.444;26.006;2023-02-01T08:29:05;12.15;;;7.70;;
46290;SDS011;32023;44.444;26.006;2023-02-01T08:31:36;13.68;;;8.18;;
46290;SDS011;32023;44.444;26.006;2023-02-01T08:34:05;11.82;;;7.13;;
46290;SDS011;32023;44.444;26.006;2023-02-01T08:36:33;17.20;;;8.40;;
46290;SDS011;32023;44.444;26.006;2023-02-01T08:39:02;15.40;;;8.88;;
46290;SDS011;32023;44.444;26.006;2023-02-01T08:41:37;18.15;;;8.70;;
46290;SDS011;32023;44.444;26.006;2023-02-01T08:44:08;14.65;;;8.82;;
46290;SDS011;32023;44.444;26.006;2023-02-01T08:46:34;18.45;;;9.57;;
46290;SDS011;32023;44.444;26.006;2023-02-01T08:49:06;17.33;;;9.07;;
46290;SDS011;32023;44.444;26.006;2023-02-01T08:51:37;15.65;;;9.60;;
46290;SDS011;32023;44.444;26.006;2023-02-01T08:54:04;15.82;;;9.82;;
46290;SDS011;32023;44.444;26.006;2023-02-01T08:56:30;16.98;;;9.25;;
46290;SDS011;32023;44.444;26.006;2023-02-01T08:59:00;15.80;;;9.80;;
46290;SDS011;32023;44.444;26.006;2023-02-01T09:01:26;13.95;;;9.18;;
46290;SDS011;32023;44.444;26.006;2023-02-01T09:03:52;16.15;;;10.02;;
46290;SDS011;32023;44.444;26.006;2023-02-01T09:06:19;17.08;;;9.77;;
46290;SDS011;32023;44.444;26.006;2023-02-01T09:08:49;17.50;;;9.55;;
46290;SDS011;32023;44.444;26.006;2023-02-01T09:11:18;14.35;;;8.57;;
46290;SDS011;32023;44.444;26.006;2023-02-01T09:14:05;18.98;;;9.20;;
46290;SDS011;32023;44.444;26.006;2023-02-01T09:16:33;15.57;;;9.02;;
46290;SDS011;32023;44.444;26.006;2023-02-01T09:19:02;13.80;;;8.75;;
46290;SDS011;32023;44.444;26.006;2023-02-01T09:21:29;12.05;;;7.63;;
46290;SDS011;32023;44.444;26.006;2023-02-01T09:24:01;14.85;;;8.57;;
46290;SDS011;32023;44.444;26.006;2023-02-01T09:26:30;15.60;;;8.32;;
46290;SDS011;32023;44.444;26.006;2023-02-01T09:28:59;12.75;;;7.90;;
46290;SDS011;32023;44.444;26.006;2023-02-01T09:31:29;15.10;;;8.77;;
46290;SDS011;32023;44.444;26.006;2023-02-01T09:34:01;12.35;;;8.23;;
46290;SDS011;32023;44.444;26.006;2023-02-01T09:36:30;13.55;;;8.75;;
46290;SDS011;32023;44.444;26.006;2023-02-01T09:39:01;15.32;;;9.30;;
46290;SDS011;32023;44.444;26.006;2023-02-01T09:44:42;13.93;;;8.45;;
46290;SDS011;32023;44.444;26.006;2023-02-01T09:47:41;12.68;;;7.90;;
46290;SDS011;32023;44.444;26.006;2023-02-01T09:50:17;13.23;;;8.20;;
46290;SDS011;32023;44.444;26.006;2023-02-01T09:52:58;12.57;;;8.07;;
46290;SDS011;32023;44.444;26.006;2023-02-01T09:55:46;11.63;;;8.73;;
46290;SDS011;32023;44.444;26.006;2023-02-01T09:58:37;14.75;;;10.18;;
46290;SDS011;32023;44.444;26.006;2023-02-01T10:01:15;12.50;;;9.65;;
46290;SDS011;32023;44.444;26.006;2023-02-01T10:09:35;11.38;;;9.20;;
46290;SDS011;32023;44.444;26.006;2023-02-01T10:15:02;12.70;;;10.38;;
46290;SDS011;32023;44.444;26.006;2023-02-01T10:17:57;13.32;;;8.93;;
46290;SDS011;32023;44.444;26.006;2023-02-01T10:21:01;12.85;;;11.18;;
46290;SDS011;32023;44.444;26.006;2023-02-01T10:26:33;12.90;;;11.60;;
46290;SDS011;32023;44.444;26.006;2023-02-01T10:29:12;8.40;;;6.90;;
46290;SDS011;32023;44.444;26.006;2023-02-01T10:31:45;13.20;;;7.50;;
46290;SDS011;32023;44.444;26.006;2023-02-01T10:34:22;11.25;;;7.32;;
46290;SDS011;32023;44.444;26.006;2023-02-01T10:37:18;10.00;;;8.80;;
46290;SDS011;32023;44.444;26.006;2023-02-01T10:39:57;14.15;;;10.20;;
46290;SDS011;32023;44.444;26.006;2023-02-01T10:42:40;12.45;;;10.77;;
46290;SDS011;32023;44.444;26.006;2023-02-01T10:45:11;13.73;;;10.10;;
46290;SDS011;32023;44.444;26.006;2023-02-01T10:47:49;12.25;;;11.15;;
46290;SDS011;32023;44.444;26.006;2023-02-01T10:50:25;8.25;;;6.30;;
46290;SDS011;32023;44.444;26.006;2023-02-01T10:53:18;8.27;;;5.78;;
46290;SDS011;32023;44.444;26.006;2023-02-01T10:56:05;7.00;;;5.65;;
46290;SDS011;32023;44.444;26.006;2023-02-01T10:58:33;13.27;;;11.97;;
46290;SDS011;32023;44.444;26.006;2023-02-01T11:01:03;30.13;;;27.80;;
46290;SDS011;32023;44.444;26.006;2023-02-01T11:03:38;37.70;;;35.28;;
46290;SDS011;32023;44.444;26.006;2023-02-01T11:08:56;14.20;;;12.32;;
46290;SDS011;32023;44.444;26.006;2023-02-01T11:11:32;13.13;;;12.13;;
46290;SDS011;32023;44.444;26.006;2023-02-01T11:14:18;7.60;;;5.80;;
46290;SDS011;32023;44.444;26.006;2023-02-01T11:19:21;7.78;;;5.30;;
46290;SDS011;32023;44.444;26.006;2023-02-01T11:21:51;8.80;;;5.97;;
46290;SDS011;32023;44.444;26.006;2023-02-01T11:26:55;12.48;;;7.00;;
46290;SDS011;32023;44.444;26.006;2023-02-01T11:29:29;9.57;;;8.10;;
46290;SDS011;32023;44.444;26.006;2023-02-01T11:32:03;9.80;;;9.00;;
46290;SDS011;32023;44.444;26.006;2023-02-01T11:34:39;13.38;;;12.38;;
46290;SDS011;32023;44.444;26.006;2023-02-01T11:40:36;7.43;;;6.47;;
46290;SDS011;32023;44.444;26.006;2023-02-01T11:47:52;13.75;;;9.73;;
46290;SDS011;32023;44.444;26.006;2023-02-01T11:50:23;10.35;;;7.30;;
46290;SDS011;32023;44.444;26.006;2023-02-01T11:53:38;9.68;;;8.80;;
46290;SDS011;32023;44.444;26.006;2023-02-01T12:02:03;6.40;;;5.80;;
46290;SDS011;32023;44.444;26.006;2023-02-01T12:05:02;8.93;;;8.23;;
46290;SDS011;32023;44.444;26.006;2023-02-01T12:11:18;9.30;;;8.50;;
46290;SDS011;32023;44.444;26.006;2023-02-01T12:22:44;7.90;;;6.70;;
46290;SDS011;32023;44.444;26.006;2023-02-01T12:33:34;7.20;;;6.40;;
46290;SDS011;32023;44.444;26.006;2023-02-01T12:44:11;6.35;;;5.50;;
46290;SDS011;32023;44.444;26.006;2023-02-01T12:46:49;6.32;;;5.38;;
46290;SDS011;32023;44.444;26.006;2023-02-01T12:55:27;7.85;;;5.22;;
46290;SDS011;32023;44.444;26.006;2023-02-01T12:58:22;7.80;;;4.55;;
46290;SDS011;32023;44.444;26.006;2023-02-01T13:04:33;5.35;;;4.30;;
46290;SDS011;32023;44.444;26.006;2023-02-01T13:07:20;9.35;;;4.63;;
46290;SDS011;32023;44.444;26.006;2023-02-01T13:12:42;8.25;;;4.68;;
46290;SDS011;32023;44.444;26.006;2023-02-01T13:15:33;7.40;;;3.75;;
46290;SDS011;32023;44.444;26.006;2023-02-01T13:18:20;6.05;;;4.10;;
46290;SDS011;32023;44.444;26.006;2023-02-01T13:21:25;8.00;;;3.40;;
46290;SDS011;32023;44.444;26.006;2023-02-01T13:23:50;8.35;;;3.83;;
46290;SDS011;32023;44.444;26.006;2023-02-01T13:26:27;6.97;;;2.92;;
46290;SDS011;32023;44.444;26.006;2023-02-01T13:28:56;5.30;;;3.10;;
46290;SDS011;32023;44.444;26.006;2023-02-01T13:39:57;8.48;;;3.90;;
46290;SDS011;32023;44.444;26.006;2023-02-01T13:42:50;6.68;;;3.55;;
46290;SDS011;32023;44.444;26.006;2023-02-01T13:45:31;6.30;;;3.80;;
46290;SDS011;32023;44.444;26.006;2023-02-01T13:48:03;4.28;;;3.17;;
46290;SDS011;32023;44.444;26.006;2023-02-01T13:50:35;6.38;;;3.47;;
46290;SDS011;32023;44.444;26.006;2023-02-01T13:55:38;4.63;;;2.60;;
46290;SDS011;32023;44.444;26.006;2023-02-01T14:00:38;6.60;;;3.20;;
46290;SDS011;32023;44.444;26.006;2023-02-01T14:08:22;6.55;;;3.00;;
46290;SDS011;32023;44.444;26.006;2023-02-01T14:11:02;6.20;;;3.55;;
46290;SDS011;32023;44.444;26.006;2023-02-01T14:26:42;7.63;;;3.72;;
46290;SDS011;32023;44.444;26.006;2023-02-01T14:50:32;12.00;;;4.55;;
46290;SDS011;32023;44.444;26.006;2023-02-01T14:55:47;7.28;;;3.35;;
46290;SDS011;32023;44.444;26.006;2023-02-01T15:01:00;7.82;;;3.63;;
46290;SDS011;32023;44.444;26.006;2023-02-01T15:06:47;9.70;;;3.65;;
46290;SDS011;32023;44.444;26.006;2023-02-01T15:09:24;11.38;;;3.78;;
46290;SDS011;32023;44.444;26.006;2023-02-01T15:14:48;10.00;;;4.38;;
46290;SDS011;32023;44.444;26.006;2023-02-01T15:17:37;7.93;;;4.35;;
46290;SDS011;32023;44.444;26.006;2023-02-01T15:20:12;8.43;;;4.22;;
46290;SDS011;32023;44.444;26.006;2023-02-01T15:22:40;8.23;;;4.68;;
46290;SDS011;32023;44.444;26.006;2023-02-01T15:25:18;11.50;;;5.63;;
46290;SDS011;32023;44.444;26.006;2023-02-01T15:27:53;13.00;;;5.90;;
46290;SDS011;32023;44.444;26.006;2023-02-01T15:30:24;11.60;;;6.00;;
46290;SDS011;32023;44.444;26.006;2023-02-01T15:33:03;12.18;;;6.22;;
46290;SDS011;32023;44.444;26.006;2023-02-01T15:35:33;11.77;;;5.65;;
46290;SDS011;32023;44.444;26.006;2023-02-01T15:38:18;12.75;;;5.95;;
46290;SDS011;32023;44.444;26.006;2023-02-01T15:43:31;13.50;;;5.72;;
46290;SDS011;32023;44.444;26.006;2023-02-01T15:46:03;13.60;;;6.80;;
46290;SDS011;32023;44.444;26.006;2023-02-01T15:48:36;10.23;;;6.63;;
46290;SDS011;32023;44.444;26.006;2023-02-01T15:51:18;14.02;;;6.53;;
46290;SDS011;32023;44.444;26.006;2023-02-01T15:53:48;15.43;;;7.40;;
46290;SDS011;32023;44.444;26.006;2023-02-01T15:59:13;16.25;;;8.80;;
46290;SDS011;32023;44.444;26.006;2023-02-01T16:01:42;21.48;;;9.57;;
46290;SDS011;32023;44.444;26.006;2023-02-01T16:07:00;26.23;;;12.77;;
46290;SDS011;32023;44.444;26.006;2023-02-01T16:09:50;20.40;;;10.13;;
46290;SDS011;32023;44.444;26.006;2023-02-01T16:15:06;29.65;;;10.98;;
46290;SDS011;32023;44.444;26.006;2023-02-01T16:17:36;27.50;;;13.52;;
46290;SDS011;32023;44.444;26.006;2023-02-01T16:20:03;21.02;;;10.77;;
46290;SDS011;32023;44.444;26.006;2023-02-01T16:22:32;19.65;;;8.90;;
46290;SDS011;32023;44.444;26.006;2023-02-01T16:24:59;15.13;;;8.73;;
46290;SDS011;32023;44.444;26.006;2023-02-01T16:27:26;11.63;;;6.80;;
46290;SDS011;32023;44.444;26.006;2023-02-01T16:30:00;18.27;;;8.52;;
46290;SDS011;32023;44.444;26.006;2023-02-01T16:35:26;15.63;;;6.90;;
46290;SDS011;32023;44.444;26.006;2023-02-01T16:37:58;17.80;;;8.23;;
46290;SDS011;32023;44.444;26.006;2023-02-01T16:40:24;13.27;;;7.80;;
46290;SDS011;32023;44.444;26.006;2023-02-01T16:42:51;13.43;;;7.38;;
46290;SDS011;32023;44.444;26.006;2023-02-01T16:50:51;14.27;;;7.53;;
46290;SDS011;32023;44.444;26.006;2023-02-01T16:53:26;16.67;;;8.63;;
46290;SDS011;32023;44.444;26.006;2023-02-01T16:55:54;18.55;;;8.73;;
46290;SDS011;32023;44.444;26.006;2023-02-01T16:58:22;16.48;;;9.05;;
46290;SDS011;32023;44.444;26.006;2023-02-01T17:00:49;19.40;;;9.30;;
46290;SDS011;32023;44.444;26.006;2023-02-01T17:03:17;19.88;;;9.65;;
46290;SDS011;32023;44.444;26.006;2023-02-01T17:05:54;18.83;;;10.00;;
46290;SDS011;32023;44.444;26.006;2023-02-01T17:08:25;20.15;;;10.40;;
46290;SDS011;32023;44.444;26.006;2023-02-01T17:10:56;17.85;;;10.68;;
46290;SDS011;32023;44.444;26.006;2023-02-01T17:13:22;16.73;;;10.68;;
46290;SDS011;32023;44.444;26.006;2023-02-01T17:15:49;14.30;;;8.85;;
46290;SDS011;32023;44.444;26.006;2023-02-01T17:18:34;11.38;;;6.80;;
46290;SDS011;32023;44.444;26.006;2023-02-01T17:21:01;12.13;;;7.18;;
46290;SDS011;32023;44.444;26.006;2023-02-01T17:23:29;13.73;;;6.57;;
46290;SDS011;32023;44.444;26.006;2023-02-01T17:25:56;16.02;;;6.13;;
46290;SDS011;32023;44.444;26.006;2023-02-01T17:28:30;11.63;;;6.20;;
46290;SDS011;32023;44.444;26.006;2023-02-01T17:33:41;13.98;;;6.32;;
46290;SDS011;32023;44.444;26.006;2023-02-01T17:36:10;13.77;;;5.68;;
46290;SDS011;32023;44.444;26.006;2023-02-01T17:38:39;9.95;;;5.00;;
46290;SDS011;32023;44.444;26.006;2023-02-01T17:41:12;14.18;;;5.60;;
46290;SDS011;32023;44.444;26.006;2023-02-01T17:43:45;9.77;;;5.05;;
46290;SDS011;32023;44.444;26.006;2023-02-01T17:46:13;8.82;;;5.20;;
46290;SDS011;32023;44.444;26.006;2023-02-01T17:48:42;12.30;;;4.90;;
46290;SDS011;32023;44.444;26.006;2023-02-01T17:51:16;8.07;;;4.95;;
46290;SDS011;32023;44.444;26.006;2023-02-01T17:53:44;9.85;;;5.30;;
46290;SDS011;32023;44.444;26.006;2023-02-01T17:56:14;11.18;;;5.70;;
46290;SDS011;32023;44.444;26.006;2023-02-01T17:58:44;7.05;;;4.05;;
46290;SDS011;32023;44.444;26.006;2023-02-01T18:01:14;10.10;;;5.55;;
46290;SDS011;32023;44.444;26.006;2023-02-01T18:03:41;13.27;;;7.05;;
46290;SDS011;32023;44.444;26.006;2023-02-01T18:06:14;14.43;;;6.88;;
46290;SDS011;32023;44.444;26.006;2023-02-01T18:08:42;12.25;;;7.38;;
46290;SDS011;32023;44.444;26.006;2023-02-01T18:11:24;13.10;;;6.25;;
46290;SDS011;32023;44.444;26.006;2023-02-01T18:13:51;11.00;;;6.70;;
46290;SDS011;32023;44.444;26.006;2023-02-01T18:16:25;13.07;;;6.72;;
46290;SDS011;32023;44.444;26.006;2023-02-01T18:18:56;12.82;;;6.40;;
46290;SDS011;32023;44.444;26.006;2023-02-01T18:21:36;11.88;;;6.68;;
46290;SDS011;32023;44.444;26.006;2023-02-01T18:24:05;14.35;;;6.05;;
46290;SDS011;32023;44.444;26.006;2023-02-01T18:26:36;10.18;;;5.88;;
46290;SDS011;32023;44.444;26.006;2023-02-01T18:29:02;10.18;;;5.88;;
46290;SDS011;32023;44.444;26.006;2023-02-01T18:31:29;12.65;;;6.60;;
46290;SDS011;32023;44.444;26.006;2023-02-01T18:34:00;10.10;;;6.18;;
46290;SDS011;32023;44.444;26.006;2023-02-01T18:36:36;13.98;;;7.22;;
46290;SDS011;32023;44.444;26.006;2023-02-01T18:39:03;12.25;;;7.40;;